createdAt,value
2022-10-18T04:39:49.906Z,57.80
2022-10-18T04:42:19.793Z,66.72
2022-10-18T04:44:46.879Z,72.43
2022-10-18T04:47:13.811Z,62.42
2022-10-18T04:49:41.162Z,66.13
2022-10-18T04:52:08.179Z,73.35
2022-10-18T04:54:35.410Z,63.30
2022-10-18T04:57:02.596Z,63.80
2022-10-18T04:59:29.693Z,61.13
2022-10-18T05:01:56.755Z,68.53
2022-10-18T05:04:24.203Z,60.50
2022-10-18T05:06:51.128Z,61.85
2022-10-18T05:09:18.473Z,64.28
2022-10-18T05:11:46.269Z,58.47
2022-10-18T05:14:13.448Z,62.40
2022-10-18T05:16:40.657Z,59.03
2022-10-18T05:19:07.641Z,55.90
2022-10-18T05:21:34.680Z,57.22
2022-10-18T05:24:01.672Z,64.28
2022-10-18T05:26:29.013Z,55.50
2022-10-18T05:28:56.055Z,62.05
2022-10-18T05:31:23.081Z,60.30
2022-10-18T05:33:50.334Z,58.38
2022-10-18T05:36:17.456Z,54.40
2022-10-18T05:38:45.708Z,57.85
2022-10-18T05:41:12.859Z,68.85
2022-10-18T05:43:40.593Z,67.40
2022-10-18T05:46:13.666Z,72.55
2022-10-18T05:48:40.977Z,87.10
2022-10-18T05:51:07.988Z,78.35
2022-10-18T05:53:37.558Z,69.13
2022-10-18T05:56:06.566Z,67.32
2022-10-18T05:58:34.072Z,107.60
2022-10-18T06:01:02.001Z,70.57
2022-10-18T06:03:30.609Z,73.45
2022-10-18T06:06:01.353Z,69.50
2022-10-18T06:08:28.377Z,71.90
2022-10-18T06:10:55.605Z,72.18
2022-10-18T06:13:22.660Z,62.55
2022-10-18T06:15:49.848Z,69.20
2022-10-18T06:18:16.850Z,67.30
2022-10-18T06:20:43.998Z,76.97
2022-10-18T06:23:11.161Z,65.78
2022-10-18T06:25:38.173Z,70.25
2022-10-18T06:28:07.832Z,71.45
2022-10-18T06:30:37.480Z,74.40
2022-10-18T06:33:04.446Z,67.95
2022-10-18T06:35:31.490Z,60.88
2022-10-18T06:37:58.446Z,59.97
2022-10-18T06:40:25.393Z,80.60
2022-10-18T06:43:00.200Z,63.00
2022-10-18T06:45:28.053Z,60.63
2022-10-18T06:47:55.022Z,55.25
2022-10-18T06:50:22.004Z,64.82
2022-10-18T06:52:51.181Z,73.10
2022-10-18T06:55:18.345Z,72.88
2022-10-18T06:57:45.370Z,70.53
2022-10-18T07:00:12.871Z,59.38
2022-10-18T07:02:41.408Z,68.22
2022-10-18T07:05:09.311Z,73.28
2022-10-18T07:07:36.551Z,70.95
2022-10-18T07:10:05.098Z,64.22
2022-10-18T07:12:32.891Z,60.47
2022-10-18T07:14:59.886Z,54.03
2022-10-18T07:17:27.551Z,56.85
2022-10-18T07:19:57.510Z,62.78
2022-10-18T07:22:29.408Z,56.60
2022-10-18T07:24:57.475Z,53.30
2022-10-18T07:27:24.458Z,48.13
2022-10-18T07:29:51.568Z,51.65
2022-10-18T07:32:18.562Z,46.88
2022-10-18T07:34:45.520Z,47.20
2022-10-18T07:37:12.565Z,47.70
2022-10-18T07:39:39.575Z,49.08
2022-10-18T07:42:06.576Z,47.67
2022-10-18T07:44:33.529Z,55.47
2022-10-18T07:47:00.797Z,48.15
2022-10-18T07:49:27.778Z,49.30
2022-10-18T07:51:54.748Z,44.08
2022-10-18T07:54:22.578Z,55.47
2022-10-18T07:56:49.588Z,61.10
2022-10-18T07:59:16.676Z,103.22
2022-10-18T08:01:43.710Z,57.60
2022-10-18T08:04:16.114Z,54.80
2022-10-18T08:06:43.563Z,46.08
2022-10-18T08:09:10.558Z,62.28
2022-10-18T08:11:38.596Z,41.65
2022-10-18T08:14:05.621Z,50.75
2022-10-18T08:19:04.468Z,79.85
2022-10-18T08:21:31.711Z,61.15
2022-10-18T08:23:58.665Z,87.15
2022-10-18T08:26:25.599Z,44.13
2022-10-18T08:28:58.299Z,51.88
2022-10-18T08:31:36.900Z,44.05
2022-10-18T08:34:03.953Z,36.10
2022-10-18T08:36:30.894Z,43.55
2022-10-18T08:38:57.925Z,49.58
2022-10-18T08:41:33.920Z,49.42
2022-10-18T08:44:16.089Z,41.55
2022-10-18T08:46:47.921Z,38.50
2022-10-18T08:49:32.319Z,37.53
2022-10-18T08:51:59.535Z,36.03
2022-10-18T08:55:04.557Z,38.38
2022-10-18T08:57:33.212Z,45.08
2022-10-18T09:00:05.230Z,51.50
2022-10-18T09:02:40.293Z,35.42
2022-10-18T09:05:34.377Z,40.03
2022-10-18T09:08:14.275Z,40.75
2022-10-18T09:10:50.194Z,32.83
2022-10-18T09:13:38.700Z,35.25
2022-10-18T09:16:13.022Z,41.67
2022-10-18T09:19:05.437Z,42.25
2022-10-18T09:21:42.651Z,35.88
2022-10-18T09:24:14.904Z,47.10
2022-10-18T09:26:49.727Z,32.38
2022-10-18T09:29:47.108Z,43.78
2022-10-18T09:32:32.720Z,29.88
2022-10-18T09:35:25.203Z,27.40
2022-10-18T09:38:03.504Z,33.38
2022-10-18T09:40:34.915Z,32.75
2022-10-18T09:43:11.715Z,35.95
2022-10-18T09:45:43.958Z,31.90
2022-10-18T09:48:13.870Z,38.17
2022-10-18T09:50:45.294Z,32.58
2022-10-18T09:53:27.231Z,32.13
2022-10-18T09:56:00.651Z,33.05
2022-10-18T09:58:40.493Z,29.23
2022-10-18T10:01:08.972Z,33.58
2022-10-18T10:03:36.097Z,33.50
2022-10-18T10:06:11.896Z,34.42
2022-10-18T10:08:49.318Z,35.25
2022-10-18T10:11:32.018Z,31.70
2022-10-18T10:14:13.922Z,34.38
2022-10-18T10:16:59.447Z,40.58
2022-10-18T10:19:31.303Z,35.88
2022-10-18T10:22:10.423Z,31.77
2022-10-18T10:24:46.706Z,39.78
2022-10-18T10:27:24.605Z,35.40
2022-10-18T10:29:56.638Z,27.23
2022-10-18T10:34:55.239Z,29.25
2022-10-18T10:37:28.452Z,24.33
2022-10-18T10:40:19.605Z,28.10
2022-10-18T10:43:09.031Z,24.60
2022-10-18T10:46:12.945Z,29.23
2022-10-18T10:48:47.052Z,28.35
2022-10-18T10:51:17.193Z,25.10
2022-10-18T10:53:51.143Z,32.05
2022-10-18T10:56:25.931Z,28.85
2022-10-18T10:58:54.564Z,22.83
2022-10-18T11:01:26.406Z,20.02
2022-10-18T11:03:57.349Z,21.10
2022-10-18T11:06:33.593Z,16.05
2022-10-18T11:09:03.525Z,17.95
2022-10-18T11:11:47.079Z,30.25
2022-10-18T11:14:27.098Z,19.58
2022-10-18T11:17:05.575Z,15.55
2022-10-18T11:19:46.404Z,14.80
2022-10-18T11:22:20.356Z,13.07
2022-10-18T11:24:47.857Z,13.32
2022-10-18T11:27:29.945Z,20.25
2022-10-18T11:30:12.561Z,36.75
2022-10-18T11:33:06.946Z,25.77
2022-10-18T11:35:42.771Z,18.40
2022-10-18T11:38:34.522Z,22.58
2022-10-18T11:41:23.818Z,20.80
2022-10-18T11:44:08.727Z,12.20
2022-10-18T11:47:00.547Z,11.48
2022-10-18T11:50:02.603Z,14.20
2022-10-18T11:52:44.645Z,9.48
2022-10-18T11:55:31.942Z,9.43
2022-10-18T11:58:20.093Z,9.52
2022-10-18T12:01:10.848Z,9.38
2022-10-18T12:03:47.762Z,10.90
2022-10-18T12:06:19.383Z,11.40
2022-10-18T12:08:50.767Z,15.63
2022-10-18T12:14:04.853Z,10.38
2022-10-18T12:17:07.811Z,16.30
2022-10-18T12:19:27.927Z,16.42
2022-10-18T12:22:08.942Z,9.15
2022-10-18T12:24:36.518Z,9.27
2022-10-18T12:27:04.081Z,14.82
2022-10-18T12:29:45.320Z,14.63
2022-10-18T12:32:19.843Z,11.40
2022-10-18T12:34:50.642Z,7.25
2022-10-18T12:37:39.500Z,8.82
2022-10-18T12:40:41.349Z,12.70
2022-10-18T12:43:10.864Z,9.50
2022-10-18T12:46:13.083Z,22.02
2022-10-18T12:48:48.805Z,9.52
2022-10-18T12:51:19.422Z,10.35
2022-10-18T12:53:56.854Z,8.30
2022-10-18T12:56:29.774Z,10.50
2022-10-18T12:59:15.315Z,9.52
2022-10-18T13:01:52.035Z,16.30
2022-10-18T13:04:28.379Z,17.20
2022-10-18T13:07:02.974Z,15.75
2022-10-18T13:09:31.460Z,22.02
2022-10-18T13:12:10.562Z,12.63
2022-10-18T13:15:05.844Z,11.20
2022-10-18T13:17:58.694Z,10.40
2022-10-18T13:21:01.178Z,12.65
2022-10-18T13:23:54.851Z,7.82
2022-10-18T13:26:59.175Z,10.20
2022-10-18T13:29:59.544Z,11.63
2022-10-18T13:32:44.067Z,17.65
2022-10-18T13:35:42.685Z,14.32
2022-10-18T13:38:34.338Z,10.35
2022-10-18T13:41:13.042Z,11.55
2022-10-18T13:43:53.045Z,11.32
2022-10-18T13:46:33.004Z,9.38
2022-10-18T13:49:20.250Z,9.30
2022-10-18T13:52:07.500Z,9.95
2022-10-18T13:54:57.298Z,7.85
2022-10-18T13:57:36.164Z,14.23
2022-10-18T14:00:19.226Z,9.68
2022-10-18T14:02:53.367Z,10.15
2022-10-18T14:05:31.668Z,12.07
2022-10-18T14:08:09.517Z,12.13
2022-10-18T14:11:02.502Z,12.30
2022-10-18T14:13:47.245Z,7.03
2022-10-18T14:16:35.107Z,6.65
2022-10-18T14:19:14.154Z,7.10
2022-10-18T14:21:48.860Z,6.53
2022-10-18T14:24:21.386Z,9.45
2022-10-18T14:26:48.471Z,6.47
2022-10-18T14:29:20.336Z,8.20
2022-10-18T14:31:53.323Z,7.38
2022-10-18T14:34:21.161Z,12.68
2022-10-18T14:36:49.752Z,10.63
2022-10-18T14:39:22.269Z,14.60
2022-10-18T14:41:54.111Z,8.60
2022-10-18T14:44:25.092Z,10.50
2022-10-18T14:46:59.367Z,14.50
2022-10-18T14:49:26.730Z,10.50
2022-10-18T14:51:56.891Z,10.18
2022-10-18T14:54:31.603Z,9.88
2022-10-18T14:57:00.959Z,12.02
2022-10-18T14:59:30.832Z,7.13
2022-10-18T15:02:18.077Z,9.55
2022-10-18T15:04:47.154Z,8.95
2022-10-18T15:07:16.976Z,6.93
2022-10-18T15:09:45.550Z,10.23
2022-10-18T15:12:14.738Z,12.07
2022-10-18T15:14:43.422Z,8.00
2022-10-18T15:17:26.280Z,10.43
2022-10-18T15:19:55.345Z,11.00
2022-10-18T15:22:31.894Z,8.98
2022-10-18T15:25:21.036Z,8.20
2022-10-18T15:27:51.620Z,11.23
2022-10-18T15:30:36.574Z,10.23
2022-10-18T15:33:09.702Z,10.15
2022-10-18T15:35:38.979Z,13.80
2022-10-18T15:38:20.894Z,8.43
2022-10-18T15:40:48.076Z,9.73
2022-10-18T15:43:24.246Z,11.90
2022-10-18T15:46:06.656Z,7.22
2022-10-18T15:48:39.871Z,8.23
2022-10-18T15:51:46.801Z,9.63
2022-10-18T15:54:29.802Z,7.82
2022-10-18T15:56:57.078Z,12.68
2022-10-18T15:59:29.688Z,11.02
2022-10-18T16:01:56.740Z,8.82
2022-10-18T16:04:25.915Z,9.23
2022-10-18T16:06:54.209Z,9.35
2022-10-18T16:09:24.444Z,7.28
2022-10-18T16:11:56.425Z,12.85
2022-10-18T16:14:25.676Z,10.48
2022-10-18T16:17:03.573Z,9.50
2022-10-18T16:19:32.344Z,12.68
2022-10-18T16:22:05.981Z,7.03
2022-10-18T16:24:33.567Z,14.18
2022-10-18T16:27:00.552Z,10.90
2022-10-18T16:29:31.961Z,11.10
2022-10-18T16:31:59.934Z,9.82
2022-10-18T16:34:27.460Z,17.08
2022-10-18T16:36:55.005Z,15.00
2022-10-18T16:39:22.504Z,32.45
2022-10-18T16:41:49.889Z,14.38
2022-10-18T16:44:19.476Z,9.38
2022-10-18T16:46:50.972Z,9.25
2022-10-18T16:49:24.386Z,11.50
2022-10-18T16:51:53.422Z,20.00
2022-10-18T16:54:21.028Z,15.43
2022-10-18T16:56:50.163Z,15.48
2022-10-18T16:59:27.250Z,9.25
2022-10-18T17:01:54.576Z,17.48
2022-10-18T17:04:21.853Z,10.35
2022-10-18T17:06:51.864Z,12.73
2022-10-18T17:09:18.824Z,10.18
2022-10-18T17:11:45.857Z,10.75
2022-10-18T17:14:12.802Z,11.10
2022-10-18T17:16:40.290Z,10.27
2022-10-18T17:19:10.476Z,22.15
2022-10-18T17:21:38.432Z,28.80
2022-10-18T17:24:06.316Z,18.20
2022-10-18T17:26:34.172Z,9.82
2022-10-18T17:29:05.466Z,14.38
2022-10-18T17:31:33.193Z,34.33
2022-10-18T17:34:01.790Z,273.70
2022-10-18T17:36:31.032Z,82.70
2022-10-18T17:38:58.290Z,51.50
2022-10-18T17:41:25.414Z,41.10
2022-10-18T17:43:52.410Z,52.95
2022-10-18T17:46:19.744Z,27.30
2022-10-18T17:48:47.326Z,41.85
2022-10-18T17:51:17.193Z,25.15
2022-10-18T17:53:44.537Z,25.00
2022-10-18T17:56:12.551Z,25.13
2022-10-18T17:58:40.235Z,29.88
2022-10-18T18:01:19.095Z,24.20
2022-10-18T18:03:47.843Z,12.88
2022-10-18T18:06:30.958Z,26.45
2022-10-18T18:08:59.368Z,18.48
2022-10-18T18:11:27.184Z,24.55
2022-10-18T18:13:57.831Z,14.90
2022-10-18T18:16:27.306Z,13.68
2022-10-18T18:18:56.631Z,14.30
2022-10-18T18:21:24.645Z,14.20
2022-10-18T18:23:51.679Z,15.13
2022-10-18T18:26:21.222Z,12.10
2022-10-18T18:28:49.187Z,13.50
2022-10-18T18:31:23.518Z,14.18
2022-10-18T18:33:56.110Z,15.00
2022-10-18T18:36:25.636Z,15.85
2022-10-18T18:38:56.916Z,13.13
2022-10-18T18:41:26.655Z,12.05
2022-10-18T18:44:01.653Z,17.90
2022-10-18T18:46:33.017Z,14.63
2022-10-18T18:49:00.401Z,8.07
2022-10-18T18:51:27.598Z,16.98
2022-10-18T18:53:54.682Z,16.05
2022-10-18T18:56:24.412Z,25.98
2022-10-18T18:58:52.708Z,12.35
2022-10-18T19:01:23.612Z,13.18
2022-10-18T19:03:52.345Z,21.10
2022-10-18T19:06:31.364Z,16.63
2022-10-18T19:09:02.807Z,20.48
2022-10-18T19:11:36.737Z,26.27
2022-10-18T19:14:04.923Z,9.35
2022-10-18T19:16:37.691Z,11.25
2022-10-18T19:19:07.484Z,16.33
2022-10-18T19:21:37.535Z,27.90
2022-10-18T19:24:05.820Z,14.77
2022-10-18T19:26:37.733Z,19.02
2022-10-18T19:29:24.128Z,24.20
2022-10-18T19:31:53.666Z,14.93
2022-10-18T19:34:22.129Z,19.95
2022-10-18T19:36:50.213Z,19.17
2022-10-18T19:39:20.728Z,17.05
2022-10-18T19:41:49.722Z,21.45
2022-10-18T19:44:18.405Z,28.80
2022-10-18T19:46:45.859Z,21.42
2022-10-18T19:49:12.885Z,29.33
2022-10-18T19:51:40.251Z,26.20
2022-10-18T19:54:08.652Z,10.75
2022-10-18T19:56:35.779Z,20.85
2022-10-18T19:59:02.841Z,14.65
2022-10-18T20:01:30.246Z,24.92
2022-10-18T20:03:57.548Z,28.98
2022-10-18T20:06:24.571Z,22.55
2022-10-18T20:08:51.906Z,12.07
2022-10-18T20:11:21.904Z,15.45
2022-10-18T20:13:49.602Z,13.90
2022-10-18T20:16:19.010Z,16.00
2022-10-18T20:18:46.663Z,15.05
2022-10-18T20:21:16.459Z,15.10
2022-10-18T20:23:44.292Z,23.70
2022-10-18T20:26:20.562Z,28.63
2022-10-18T20:28:49.494Z,12.98
2022-10-18T20:31:18.843Z,11.05
2022-10-18T20:33:47.233Z,20.48
2022-10-18T20:36:16.906Z,12.02
2022-10-18T20:38:46.947Z,9.95
2022-10-18T20:41:23.868Z,12.25
2022-10-18T20:43:56.470Z,13.82
2022-10-18T20:46:24.088Z,18.77
2022-10-18T20:48:52.169Z,16.25
2022-10-18T20:51:20.275Z,20.23
2022-10-18T20:53:47.714Z,4.90
2022-10-18T20:56:20.532Z,25.55
2022-10-18T20:58:55.504Z,6.43
2022-10-18T21:01:25.621Z,11.05
2022-10-18T21:03:54.339Z,10.98
2022-10-18T21:06:26.663Z,19.73
2022-10-18T21:09:05.483Z,10.20
2022-10-18T21:11:36.499Z,9.68
2022-10-18T21:14:04.400Z,19.45
2022-10-18T21:16:33.269Z,7.40
2022-10-18T21:19:10.194Z,18.58
2022-10-18T21:21:37.300Z,13.02
2022-10-18T21:24:07.091Z,7.22
2022-10-18T21:26:36.099Z,10.05
2022-10-18T21:29:04.646Z,14.43
2022-10-18T21:31:36.925Z,6.97
2022-10-18T21:34:06.282Z,6.78
2022-10-18T21:36:36.083Z,8.45
2022-10-18T21:39:05.698Z,8.90
2022-10-18T21:41:33.076Z,15.48
2022-10-18T21:44:00.523Z,13.63
2022-10-18T21:46:27.572Z,6.95
2022-10-18T21:48:56.260Z,17.23
2022-10-18T21:51:26.199Z,20.10
2022-10-18T21:53:55.500Z,10.77
2022-10-18T21:56:34.420Z,13.77
2022-10-18T21:59:02.509Z,16.50
2022-10-18T22:01:35.827Z,23.58
2022-10-18T22:04:05.798Z,18.08
2022-10-18T22:09:08.472Z,8.82
2022-10-18T22:11:41.670Z,13.15
2022-10-18T22:14:09.181Z,15.43
2022-10-18T22:16:36.528Z,18.23
2022-10-18T22:19:05.289Z,11.73
2022-10-18T22:25:23.360Z,12.27
2022-10-18T22:27:50.321Z,9.45
2022-10-18T22:30:17.293Z,7.78
2022-10-18T22:32:44.387Z,13.10
2022-10-18T22:35:11.315Z,10.82
2022-10-18T22:37:38.325Z,16.02
2022-10-18T22:40:05.885Z,9.13
2022-10-18T22:45:05.093Z,9.82
2022-10-18T22:47:32.914Z,8.65
2022-10-18T22:50:00.122Z,19.65
2022-10-18T22:52:27.163Z,14.70
2022-10-18T22:54:54.395Z,7.70
